Time;durP1;ratioP1;P1;durP2;ratioP2;P2;SDS_P1;SDS_P2;PMS_P1;PMS_P2;Temp;Humidity;BMP_temperature;BMP_pressure;BME280_temperature;BME280_humidity;BME280_pressure;Samples;Min_cycle;Max_cycle;Signal;HPM_P1;HPM_P2
2022/11/19 00:00:54;;;;;;;10.52;8.35;;;;;;;;;;10034693;28;20057;-66
2022/11/19 00:05:49;;;;;;;13.07;7.70;;;;;;;;;;10027980;28;20143;-66
2022/11/19 00:10:44;;;;;;;8.70;7.53;;;;;;;;;;10027382;28;20049;-66
2022/11/19 00:15:39;;;;;;;20.70;8.45;;;;;;;;;;10027437;28;20070;-66
2022/11/19 00:20:34;;;;;;;10.00;8.40;;;;;;;;;;10028349;28;20084;-66
2022/11/19 00:25:30;;;;;;;10.45;8.60;;;;;;;;;;10027240;28;20054;-66
2022/11/19 00:30:24;;;;;;;10.80;8.13;;;;;;;;;;10037391;28;20479;-66
2022/11/19 00:35:38;;;;;;;7.88;6.93;;;;;;;;;;10028385;28;20493;-66
2022/11/19 00:40:32;;;;;;;9.85;8.02;;;;;;;;;;10035815;28;20085;-66
2022/11/19 00:45:25;;;;;;;14.07;9.45;;;;;;;;;;10029200;28;20145;-65
2022/11/19 00:50:19;;;;;;;10.48;9.38;;;;;;;;;;10032066;28;20078;-66
2022/11/19 00:55:13;;;;;;;12.05;10.60;;;;;;;;;;10033619;28;20061;-66
2022/11/19 01:00:11;;;;;;;12.95;11.63;;;;;;;;;;10037253;28;20550;-66
2022/11/19 01:05:06;;;;;;;13.43;12.10;;;;;;;;;;10040136;28;20072;-66
2022/11/19 01:10:00;;;;;;;19.52;13.25;;;;;;;;;;10034852;28;20115;-66
2022/11/19 01:14:53;;;;;;;16.38;13.63;;;;;;;;;;10033150;28;20627;-65
2022/11/19 01:19:47;;;;;;;17.95;14.20;;;;;;;;;;10036719;28;20046;-65
2022/11/19 01:24:41;;;;;;;20.33;12.77;;;;;;;;;;10035922;28;20104;-65
2022/11/19 01:29:35;;;;;;;20.15;15.10;;;;;;;;;;10032629;28;20378;-65
2022/11/19 01:34:29;;;;;;;13.75;12.30;;;;;;;;;;10035913;28;20045;-65
2022/11/19 01:39:24;;;;;;;15.40;13.35;;;;;;;;;;10034308;28;20058;-66
2022/11/19 01:44:57;;;;;;;17.42;14.38;;;;;;;;;;10034940;28;20129;-66
2022/11/19 01:49:51;;;;;;;15.63;13.98;;;;;;;;;;10040505;28;20053;-65
2022/11/19 01:54:48;;;;;;;16.50;10.35;;;;;;;;;;10035471;28;20061;-65
2022/11/19 01:59:44;;;;;;;13.73;9.60;;;;;;;;;;10038265;28;20057;-65
2022/11/19 02:04:38;;;;;;;9.77;7.30;;;;;;;;;;10035461;28;20037;-65
2022/11/19 02:09:33;;;;;;;8.00;7.10;;;;;;;;;;10031554;28;20068;-65
2022/11/19 02:15:03;;;;;;;10.30;7.40;;;;;;;;;;10033615;28;20056;-65
2022/11/19 02:20:40;;;;;;;8.73;6.63;;;;;;;;;;10030175;28;20054;-65
2022/11/19 02:25:49;;;;;;;9.75;6.22;;;;;;;;;;9970693;28;20079;-65
2022/11/19 02:30:47;;;;;;;8.27;6.18;;;;;;;;;;10028578;28;20057;-65
2022/11/19 02:35:46;;;;;;;7.93;7.20;;;;;;;;;;10033145;28;20092;-65
2022/11/19 02:40:42;;;;;;;9.55;5.95;;;;;;;;;;10031265;28;20132;-64
2022/11/19 02:45:40;;;;;;;8.18;7.18;;;;;;;;;;10035058;28;20579;-65
2022/11/19 02:50:36;;;;;;;8.90;7.55;;;;;;;;;;10012679;28;20407;-65
2022/11/19 02:55:30;;;;;;;9.85;6.40;;;;;;;;;;10028443;28;20049;-65
2022/11/19 03:05:38;;;;;;;15.00;7.90;;;;;;;;;;10028485;28;20052;-65
2022/11/19 03:10:56;;;;;;;8.45;7.65;;;;;;;;;;10031313;28;20463;-65
2022/11/19 03:21:30;;;;;;;16.27;8.20;;;;;;;;;;10031122;28;20056;-64
2022/11/19 03:26:36;;;;;;;7.47;6.72;;;;;;;;;;10031232;28;20109;-65
2022/11/19 03:31:30;;;;;;;9.75;7.32;;;;;;;;;;10043881;28;20140;-65
2022/11/19 03:36:27;;;;;;;7.57;6.78;;;;;;;;;;10029064;28;20046;-65
2022/11/19 03:41:20;;;;;;;9.63;7.30;;;;;;;;;;10026860;28;20065;-65
2022/11/19 03:46:15;;;;;;;10.13;7.90;;;;;;;;;;10042812;28;20424;-64
2022/11/19 03:51:25;;;;;;;8.95;7.10;;;;;;;;;;10026541;28;20137;-65
2022/11/19 03:56:21;;;;;;;8.27;6.90;;;;;;;;;;10026937;28;20052;-65
2022/11/19 04:01:15;;;;;;;9.43;8.48;;;;;;;;;;10026539;28;20497;-65
2022/11/19 04:06:10;;;;;;;13.68;9.02;;;;;;;;;;10027304;28;20128;-65
2022/11/19 04:11:02;;;;;;;12.00;8.23;;;;;;;;;;10027889;28;20053;-65
2022/11/19 04:15:55;;;;;;;10.93;8.13;;;;;;;;;;10033897;28;20053;-65
2022/11/19 04:20:49;;;;;;;11.60;7.95;;;;;;;;;;10029415;28;20137;-65
2022/11/19 04:25:47;;;;;;;11.85;8.35;;;;;;;;;;10033538;28;20078;-65
2022/11/19 04:30:44;;;;;;;12.00;8.18;;;;;;;;;;10035753;28;20065;-65
2022/11/19 04:35:37;;;;;;;21.35;8.93;;;;;;;;;;10038622;28;20049;-65
2022/11/19 04:40:31;;;;;;;14.10;9.18;;;;;;;;;;10041388;28;20540;-65
2022/11/19 04:45:25;;;;;;;10.25;8.98;;;;;;;;;;10034130;28;20148;-64
2022/11/19 04:50:19;;;;;;;11.40;8.40;;;;;;;;;;10040606;28;20049;-65
2022/11/19 04:55:13;;;;;;;10.13;9.05;;;;;;;;;;10040551;28;20062;-65
2022/11/19 05:00:08;;;;;;;11.20;8.80;;;;;;;;;;10033262;28;20137;-65
2022/11/19 05:05:01;;;;;;;12.20;10.00;;;;;;;;;;10041918;28;20479;-65
2022/11/19 05:09:56;;;;;;;11.45;7.75;;;;;;;;;;10043557;28;20044;-64
2022/11/19 05:14:48;;;;;;;12.00;6.15;;;;;;;;;;10037146;28;20061;-64
2022/11/19 05:19:42;;;;;;;7.53;5.20;;;;;;;;;;10036392;28;20077;-64
2022/11/19 05:24:35;;;;;;;4.80;4.30;;;;;;;;;;10037789;28;20045;-65
2022/11/19 05:29:29;;;;;;;5.20;4.70;;;;;;;;;;10036685;28;20057;-65
2022/11/19 05:34:23;;;;;;;6.07;5.47;;;;;;;;;;10040496;28;20045;-65
2022/11/19 05:39:17;;;;;;;6.93;5.40;;;;;;;;;;10043757;28;21306;-65
2022/11/19 05:44:14;;;;;;;6.55;5.05;;;;;;;;;;10040690;28;20161;-64
2022/11/19 05:49:07;;;;;;;6.78;5.80;;;;;;;;;;10038259;28;20572;-65
2022/11/19 05:54:02;;;;;;;11.75;6.72;;;;;;;;;;10041484;28;20045;-65
2022/11/19 05:58:56;;;;;;;8.27;5.85;;;;;;;;;;10032748;28;20136;-65
2022/11/19 06:03:49;;;;;;;8.23;5.93;;;;;;;;;;10038603;28;20054;-64
2022/11/19 06:08:43;;;;;;;10.23;5.93;;;;;;;;;;10030184;28;20104;-66
2022/11/19 06:13:37;;;;;;;13.82;5.97;;;;;;;;;;10034356;28;21087;-64
2022/11/19 06:18:30;;;;;;;11.65;7.93;;;;;;;;;;10039440;28;20417;-66
2022/11/19 06:23:25;;;;;;;7.80;6.80;;;;;;;;;;10037004;28;20432;-66
2022/11/19 06:28:18;;;;;;;7.13;6.43;;;;;;;;;;10041491;28;20080;-66
2022/11/19 06:33:12;;;;;;;11.32;7.65;;;;;;;;;;10031830;28;20076;-65
2022/11/19 06:38:06;;;;;;;9.65;6.45;;;;;;;;;;10037196;28;20081;-66
2022/11/19 06:43:00;;;;;;;7.40;6.43;;;;;;;;;;10039951;28;20061;-64
2022/11/19 06:47:54;;;;;;;9.80;7.18;;;;;;;;;;10031618;28;20065;-65
2022/11/19 06:52:48;;;;;;;8.27;7.15;;;;;;;;;;10032838;28;20053;-65
2022/11/19 06:57:42;;;;;;;7.50;6.80;;;;;;;;;;10035821;28;20070;-65
2022/11/19 07:02:37;;;;;;;12.52;9.65;;;;;;;;;;10030068;28;20137;-66
2022/11/19 07:07:31;;;;;;;10.32;7.38;;;;;;;;;;10028898;28;20060;-65
2022/11/19 07:12:26;;;;;;;9.20;8.23;;;;;;;;;;10027495;28;20053;-63
2022/11/19 07:17:20;;;;;;;8.52;7.40;;;;;;;;;;10027978;28;20396;-65
2022/11/19 07:22:13;;;;;;;7.57;6.70;;;;;;;;;;10027131;28;20054;-65
2022/11/19 07:27:07;;;;;;;7.63;6.85;;;;;;;;;;10025841;28;20090;-65
2022/11/19 07:32:03;;;;;;;8.65;7.72;;;;;;;;;;10028428;28;20056;-65
2022/11/19 07:36:59;;;;;;;9.30;7.38;;;;;;;;;;10035342;28;20038;-65
2022/11/19 07:47:06;;;;;;;8.65;7.25;;;;;;;;;;10027242;28;20137;-64
2022/11/19 07:52:01;;;;;;;13.68;6.90;;;;;;;;;;10018761;28;20042;-65
2022/11/19 07:56:55;;;;;;;7.57;6.60;;;;;;;;;;10025582;28;20499;-64
2022/11/19 08:01:50;;;;;;;10.15;7.78;;;;;;;;;;10030445;28;20084;-64
2022/11/19 08:06:44;;;;;;;9.23;8.27;;;;;;;;;;10027639;28;20050;-64
2022/11/19 08:11:39;;;;;;;10.10;8.00;;;;;;;;;;10028752;28;20103;-68
2022/11/19 08:21:46;;;;;;;27.52;17.70;;;;;;;;;;10024063;28;20054;-67
2022/11/19 08:26:41;;;;;;;49.25;26.75;;;;;;;;;;10022037;28;20085;-67
2022/11/19 08:31:34;;;;;;;45.00;25.02;;;;;;;;;;10028773;28;20054;-68
2022/11/19 08:36:28;;;;;;;51.03;26.80;;;;;;;;;;10028499;28;20088;-66
2022/11/19 08:46:33;;;;;;;55.38;30.75;;;;;;;;;;10041045;28;20042;-66
2022/11/19 08:51:27;;;;;;;64.75;32.95;;;;;;;;;;10035149;28;20050;-67
2022/11/19 08:56:23;;;;;;;63.60;30.67;;;;;;;;;;10024019;28;20038;-66
2022/11/19 09:01:17;;;;;;;57.08;32.17;;;;;;;;;;10035272;28;20053;-65
2022/11/19 09:06:11;;;;;;;60.15;33.53;;;;;;;;;;10041370;28;20049;-65
2022/11/19 09:11:31;;;;;;;65.28;32.17;;;;;;;;;;10041172;28;20061;-66
2022/11/19 09:16:26;;;;;;;67.47;36.03;;;;;;;;;;10010868;28;20068;-65
2022/11/19 09:21:22;;;;;;;98.78;37.42;;;;;;;;;;10021709;28;20062;-70
2022/11/19 09:26:18;;;;;;;68.60;38.22;;;;;;;;;;10027716;28;21344;-66
2022/11/19 09:31:17;;;;;;;66.05;36.22;;;;;;;;;;10025272;28;20072;-66
2022/11/19 09:36:12;;;;;;;53.80;33.63;;;;;;;;;;10025955;28;20606;-66
2022/11/19 09:41:31;;;;;;;46.15;30.25;;;;;;;;;;10026160;28;20066;-65
2022/11/19 09:46:29;;;;;;;46.35;26.65;;;;;;;;;;10014459;28;20057;-66
2022/11/19 09:51:28;;;;;;;29.23;19.65;;;;;;;;;;10025396;28;20056;-66
2022/11/19 09:56:35;;;;;;;;;;;;;;;;;;10024284;28;20060;-65
2022/11/19 10:01:35;;;;;;;19.63;14.60;;;;;;;;;;10008817;28;20029;-67
2022/11/19 10:06:48;;;;;;;16.45;12.50;;;;;;;;;;10029437;28;20070;-64
2022/11/19 10:12:23;;;;;;;14.98;10.13;;;;;;;;;;10025530;28;20049;-64
2022/11/19 10:17:37;;;;;;;10.57;8.20;;;;;;;;;;10025786;28;20464;-66
2022/11/19 10:22:50;;;;;;;13.38;9.25;;;;;;;;;;10025659;28;20104;-67
2022/11/19 10:28:06;;;;;;;11.13;9.77;;;;;;;;;;10025419;28;20128;-65
2022/11/19 10:33:35;;;;;;;10.57;7.75;;;;;;;;;;10024634;28;20427;-64
2022/11/19 10:38:55;;;;;;;17.50;9.75;;;;;;;;;;9975168;28;20571;-64
2022/11/19 10:43:48;;;;;;;13.65;9.15;;;;;;;;;;10023882;28;20108;-65
2022/11/19 10:48:45;;;;;;;15.93;11.48;;;;;;;;;;10025630;28;20064;-65
2022/11/19 10:54:01;;;;;;;65.72;47.75;;;;;;;;;;10021641;28;20046;-64
2022/11/19 10:59:19;;;;;;;69.38;44.00;;;;;;;;;;10022024;28;20054;-64
2022/11/19 11:04:19;;;;;;;39.28;33.55;;;;;;;;;;10032894;28;20420;-65
2022/11/19 11:09:35;;;;;;;15.80;13.23;;;;;;;;;;10033968;28;20112;-64
2022/11/19 11:15:09;;;;;;;20.63;18.10;;;;;;;;;;10023001;28;20081;-64
2022/11/19 11:20:19;;;;;;;18.63;14.43;;;;;;;;;;10021611;28;20513;-64
2022/11/19 11:25:25;;;;;;;17.70;12.15;;;;;;;;;;10024663;28;20042;-65
2022/11/19 11:30:19;;;;;;;24.20;16.85;;;;;;;;;;10032717;28;20129;-64
2022/11/19 11:35:34;;;;;;;22.90;17.45;;;;;;;;;;10025258;28;20530;-64
2022/11/19 11:40:29;;;;;;;16.75;13.82;;;;;;;;;;10026788;28;20053;-64
2022/11/19 11:45:48;;;;;;;21.63;12.15;;;;;;;;;;10027711;28;20093;-64
2022/11/19 11:51:20;;;;;;;23.08;13.88;;;;;;;;;;10025592;28;20085;-64
2022/11/19 11:56:40;;;;;;;32.33;26.58;;;;;;;;;;10029286;28;20060;-64
2022/11/19 12:02:12;;;;;;;31.75;21.30;;;;;;;;;;10033545;28;20489;-64
2022/11/19 12:07:17;;;;;;;31.90;20.67;;;;;;;;;;10027951;28;20095;-64
2022/11/19 12:12:52;;;;;;;20.42;16.15;;;;;;;;;;10026476;28;20052;-64
2022/11/19 12:18:20;;;;;;;22.63;15.68;;;;;;;;;;10023609;28;20042;-64
2022/11/19 12:23:43;;;;;;;25.40;17.85;;;;;;;;;;9940613;28;20500;-63
2022/11/19 12:28:55;;;;;;;27.33;15.40;;;;;;;;;;9996359;28;20614;-62
2022/11/19 12:33:58;;;;;;;21.77;16.73;;;;;;;;;;10019512;28;20107;-62
2022/11/19 12:38:59;;;;;;;27.02;17.70;;;;;;;;;;10024108;28;20057;-62
2022/11/19 12:43:58;;;;;;;22.20;16.50;;;;;;;;;;10028647;28;20049;-61
2022/11/19 12:49:15;;;;;;;24.20;16.50;;;;;;;;;;10029235;28;20037;-65
2022/11/19 12:54:10;;;;;;;28.67;17.58;;;;;;;;;;10004815;28;20390;-64
2022/11/19 12:59:23;;;;;;;24.83;17.80;;;;;;;;;;10011588;28;20061;-64
2022/11/19 13:05:09;;;;;;;29.77;17.80;;;;;;;;;;10031660;28;20419;-64
2022/11/19 13:10:11;;;;;;;35.92;18.60;;;;;;;;;;10024683;28;20046;-64
2022/11/19 13:15:18;;;;;;;69.07;60.05;;;;;;;;;;10028055;28;20381;-64
2022/11/19 13:20:34;;;;;;;31.70;23.90;;;;;;;;;;10009483;28;20077;-64
2022/11/19 13:25:47;;;;;;;30.70;22.02;;;;;;;;;;10023084;28;20057;-64
2022/11/19 13:31:01;;;;;;;27.05;19.65;;;;;;;;;;10017053;28;20605;-65
2022/11/19 13:36:16;;;;;;;26.67;19.48;;;;;;;;;;10040275;28;20061;-64
2022/11/19 13:44:37;;;;;;;28.42;20.27;;;;;;;;;;10034267;28;20073;-64
2022/11/19 13:46:57;;;;;;;29.55;18.92;;;;;;;;;;10029617;28;20046;-65
2022/11/19 13:52:02;;;;;;;32.45;18.73;;;;;;;;;;10032812;28;20054;-65
2022/11/19 13:57:41;;;;;;;29.80;19.63;;;;;;;;;;10021907;28;20591;-65
2022/11/19 14:03:12;;;;;;;39.05;18.88;;;;;;;;;;10030468;28;20073;-65
2022/11/19 14:08:29;;;;;;;32.35;18.58;;;;;;;;;;10029649;28;20100;-61
2022/11/19 14:13:41;;;;;;;58.53;20.60;;;;;;;;;;10023721;28;20069;-60
2022/11/19 14:29:43;;;;;;;37.83;23.05;;;;;;;;;;10030348;28;20054;-62
2022/11/19 14:35:01;;;;;;;36.03;19.63;;;;;;;;;;10052388;28;20046;-62
2022/11/19 14:40:17;;;;;;;45.42;23.42;;;;;;;;;;10040250;28;20054;-62
2022/11/19 14:45:23;;;;;;;41.95;25.13;;;;;;;;;;10031839;28;20054;-61
2022/11/19 14:50:26;;;;;;;49.25;27.98;;;;;;;;;;10034303;28;20058;-60
2022/11/19 14:55:32;;;;;;;40.33;25.55;;;;;;;;;;10011704;28;20045;-60
2022/11/19 15:00:29;;;;;;;40.33;26.13;;;;;;;;;;10029712;28;20077;-60
2022/11/19 15:05:49;;;;;;;51.22;25.10;;;;;;;;;;10031360;28;20112;-60
2022/11/19 15:11:08;;;;;;;41.65;25.17;;;;;;;;;;10026798;28;20104;-61
2022/11/19 15:16:13;;;;;;;41.92;25.48;;;;;;;;;;10013092;28;20042;-61
2022/11/19 15:21:31;;;;;;;50.20;26.25;;;;;;;;;;10025165;28;20092;-61
2022/11/19 15:26:41;;;;;;;41.55;27.13;;;;;;;;;;10028895;28;20107;-61
2022/11/19 15:31:46;;;;;;;45.15;27.83;;;;;;;;;;10021395;28;20061;-61
2022/11/19 15:36:46;;;;;;;53.30;29.80;;;;;;;;;;10038398;28;20471;-61
2022/11/19 15:41:59;;;;;;;57.45;30.15;;;;;;;;;;10008121;28;20049;-61
2022/11/19 15:46:57;;;;;;;58.38;30.38;;;;;;;;;;10026934;28;20489;-61
2022/11/19 15:52:09;;;;;;;63.80;29.93;;;;;;;;;;10028394;28;20099;-61
2022/11/19 15:57:20;;;;;;;61.10;33.33;;;;;;;;;;10029048;28;20412;-61
2022/11/19 16:02:18;;;;;;;62.85;33.22;;;;;;;;;;10029554;28;20097;-61
2022/11/19 16:07:12;;;;;;;67.63;34.47;;;;;;;;;;10023500;28;20077;-61
2022/11/19 16:17:36;;;;;;;50.90;29.52;;;;;;;;;;10033031;28;20068;-61
2022/11/19 16:22:54;;;;;;;51.90;29.30;;;;;;;;;;10031964;28;20058;-60
2022/11/19 16:27:47;;;;;;;48.25;28.60;;;;;;;;;;10019018;28;20154;-60
2022/11/19 16:32:42;;;;;;;49.35;28.55;;;;;;;;;;9996009;28;20133;-60
2022/11/19 16:37:36;;;;;;;44.80;30.10;;;;;;;;;;9993843;28;20055;-61
2022/11/19 16:42:31;;;;;;;46.65;29.80;;;;;;;;;;9991571;28;20061;-61
2022/11/19 16:47:36;;;;;;;49.17;30.00;;;;;;;;;;9992777;28;20089;-59
2022/11/19 16:52:33;;;;;;;42.17;28.73;;;;;;;;;;10005139;28;20046;-59
2022/11/19 16:57:28;;;;;;;47.38;28.73;;;;;;;;;;9993015;28;20137;-59
2022/11/19 17:02:28;;;;;;;49.78;29.63;;;;;;;;;;9993029;28;20519;-60
2022/11/19 17:07:47;;;;;;;;;;;;;;;;;;9994621;28;20066;-60
2022/11/19 17:12:56;;;;;;;46.95;29.30;;;;;;;;;;9987445;28;20012;-60
2022/11/19 17:18:00;;;;;;;50.15;32.60;;;;;;;;;;9985606;28;20066;-60
2022/11/19 17:23:02;;;;;;;59.38;33.78;;;;;;;;;;9985452;28;20077;-61
2022/11/19 17:27:56;;;;;;;55.58;35.97;;;;;;;;;;9986429;28;20129;-63
2022/11/19 17:33:01;;;;;;;133.90;82.13;;;;;;;;;;9972838;28;20125;-61
2022/11/19 17:37:57;;;;;;;217.38;125.30;;;;;;;;;;9988587;28;20077;-60
2022/11/19 17:48:18;;;;;;;111.82;71.05;;;;;;;;;;9991110;28;20496;-61
2022/11/19 17:53:12;;;;;;;140.75;83.93;;;;;;;;;;9991463;28;20058;-61
2022/11/19 17:58:06;;;;;;;103.03;63.60;;;;;;;;;;9991490;28;20050;-61
2022/11/19 18:03:00;;;;;;;62.35;37.72;;;;;;;;;;9916431;28;140876;-61
2022/11/19 18:07:55;;;;;;;46.17;31.65;;;;;;;;;;9955107;28;20047;-63
2022/11/19 18:12:49;;;;;;;58.65;31.17;;;;;;;;;;9949975;28;20101;-65
2022/11/19 18:17:43;;;;;;;45.53;30.67;;;;;;;;;;9950289;28;20046;-62
2022/11/19 18:22:36;;;;;;;64.32;37.00;;;;;;;;;;9951176;28;20050;-63
2022/11/19 18:27:30;;;;;;;47.40;31.33;;;;;;;;;;9951824;28;20051;-63
2022/11/19 18:32:25;;;;;;;51.35;31.50;;;;;;;;;;9987950;28;20422;-63
2022/11/19 18:37:19;;;;;;;48.42;31.45;;;;;;;;;;9979364;28;20050;-63
2022/11/19 18:42:13;;;;;;;57.80;32.50;;;;;;;;;;9989707;28;20078;-64
2022/11/19 18:47:09;;;;;;;47.97;30.17;;;;;;;;;;9989379;28;20061;-64
2022/11/19 18:52:06;;;;;;;45.00;28.15;;;;;;;;;;9987257;28;20054;-64
2022/11/19 18:57:01;;;;;;;41.78;27.88;;;;;;;;;;9970287;28;20546;-62
2022/11/19 19:01:54;;;;;;;42.17;27.42;;;;;;;;;;9986021;28;20053;-62
2022/11/19 19:06:48;;;;;;;45.13;27.30;;;;;;;;;;9992628;28;20051;-61
2022/11/19 19:16:54;;;;;;;36.03;25.92;;;;;;;;;;9986234;28;20047;-62
2022/11/19 19:21:48;;;;;;;44.08;27.10;;;;;;;;;;9986042;28;20069;-63
2022/11/19 19:26:41;;;;;;;42.13;29.25;;;;;;;;;;9967593;28;20088;-63
2022/11/19 19:31:35;;;;;;;45.95;28.52;;;;;;;;;;9985407;28;20514;-64
2022/11/19 19:36:29;;;;;;;46.97;26.48;;;;;;;;;;9987401;28;20046;-64
2022/11/19 19:41:25;;;;;;;51.22;30.25;;;;;;;;;;9986841;28;20049;-65
2022/11/19 19:46:20;;;;;;;67.45;41.05;;;;;;;;;;9987243;28;20394;-64
2022/11/19 19:51:15;;;;;;;46.50;29.45;;;;;;;;;;9986297;28;20120;-65
2022/11/19 19:56:17;;;;;;;51.97;30.08;;;;;;;;;;9985157;28;20153;-64
2022/11/19 20:01:16;;;;;;;74.22;46.63;;;;;;;;;;9987830;28;20150;-64
2022/11/19 20:06:11;;;;;;;69.45;45.15;;;;;;;;;;9987529;28;20046;-65
2022/11/19 20:11:08;;;;;;;46.60;33.00;;;;;;;;;;9986545;28;20050;-65
2022/11/19 20:16:16;;;;;;;62.72;41.53;;;;;;;;;;9985232;28;20054;-67
2022/11/19 20:21:15;;;;;;;40.05;26.65;;;;;;;;;;9986509;28;20050;-64
2022/11/19 20:26:14;;;;;;;41.93;26.27;;;;;;;;;;9985897;28;20046;-64
2022/11/19 20:31:16;;;;;;;35.47;24.55;;;;;;;;;;9986400;28;20305;-66
2022/11/19 20:36:12;;;;;;;41.92;28.48;;;;;;;;;;9965352;28;20137;-67
2022/11/19 20:44:18;;;;;;;36.47;24.67;;;;;;;;;;9984488;28;20058;-64
2022/11/19 20:46:21;;;;;;;42.15;26.75;;;;;;;;;;9983899;28;20121;-63
2022/11/19 20:51:15;;;;;;;54.78;32.95;;;;;;;;;;9985213;28;20050;-63
2022/11/19 20:56:08;;;;;;;51.33;35.70;;;;;;;;;;9985100;28;20077;-65
2022/11/19 21:01:26;;;;;;;70.50;47.58;;;;;;;;;;9971800;28;20448;-64
2022/11/19 21:06:23;;;;;;;64.93;52.20;;;;;;;;;;9987234;28;20054;-69
2022/11/19 21:11:17;;;;;;;41.60;24.65;;;;;;;;;;9991297;28;20084;-64
2022/11/19 21:16:12;;;;;;;38.92;26.52;;;;;;;;;;9992806;28;20046;-64
2022/11/19 21:21:08;;;;;;;38.25;25.85;;;;;;;;;;9992323;28;20042;-64
2022/11/19 21:26:08;;;;;;;42.63;25.45;;;;;;;;;;9992557;28;20405;-64
2022/11/19 21:31:02;;;;;;;43.83;27.63;;;;;;;;;;9992548;28;20054;-65
2022/11/19 21:35:57;;;;;;;41.25;27.42;;;;;;;;;;9991586;28;20101;-69
2022/11/19 21:40:52;;;;;;;60.35;26.70;;;;;;;;;;9991494;28;20078;-66
2022/11/19 21:45:47;;;;;;;42.20;26.83;;;;;;;;;;9864169;28;1637671;-67
2022/11/19 21:50:41;;;;;;;50.47;30.38;;;;;;;;;;9989851;28;20670;-67
2022/11/19 21:55:34;;;;;;;40.08;24.55;;;;;;;;;;9975341;28;297718;-67
2022/11/19 22:00:29;;;;;;;40.60;26.42;;;;;;;;;;9991002;28;20056;-67
2022/11/19 22:05:23;;;;;;;38.28;25.73;;;;;;;;;;9990500;28;20161;-68
2022/11/19 22:10:17;;;;;;;44.70;27.67;;;;;;;;;;9989694;28;20062;-69
2022/11/19 22:15:12;;;;;;;42.97;28.38;;;;;;;;;;9988502;28;20054;-67
2022/11/19 22:20:05;;;;;;;43.80;26.75;;;;;;;;;;9988745;28;20474;-67
2022/11/19 22:24:59;;;;;;;45.42;27.77;;;;;;;;;;9988670;28;20050;-67
2022/11/19 22:29:53;;;;;;;44.15;27.35;;;;;;;;;;9985897;28;20058;-64
2022/11/19 22:34:48;;;;;;;44.67;28.85;;;;;;;;;;9987514;28;20054;-64
2022/11/19 22:39:42;;;;;;;41.97;27.15;;;;;;;;;;9986328;28;20105;-65
2022/11/19 22:44:36;;;;;;;45.40;28.50;;;;;;;;;;9986162;28;20176;-64
2022/11/19 22:49:33;;;;;;;49.80;30.77;;;;;;;;;;9987474;28;20088;-65
2022/11/19 22:54:27;;;;;;;47.72;28.48;;;;;;;;;;9987150;28;20074;-65
2022/11/19 22:59:21;;;;;;;44.60;27.58;;;;;;;;;;9989411;28;20046;-65
2022/11/19 23:04:15;;;;;;;40.60;26.00;;;;;;;;;;9988860;28;20399;-65
2022/11/19 23:09:08;;;;;;;48.08;30.45;;;;;;;;;;9989436;28;20448;-65
2022/11/19 23:14:01;;;;;;;46.63;28.10;;;;;;;;;;9988632;28;20050;-65
2022/11/19 23:18:56;;;;;;;46.28;26.77;;;;;;;;;;9988010;28;20382;-65
2022/11/19 23:23:50;;;;;;;41.55;25.85;;;;;;;;;;9985192;28;20082;-64
2022/11/19 23:28:44;;;;;;;37.05;25.15;;;;;;;;;;9984048;28;20058;-64
2022/11/19 23:33:38;;;;;;;43.03;25.77;;;;;;;;;;9983769;28;20081;-64
2022/11/19 23:38:33;;;;;;;46.72;25.92;;;;;;;;;;9981097;28;20050;-64
2022/11/19 23:43:28;;;;;;;37.67;23.85;;;;;;;;;;9986257;28;20518;-64
2022/11/19 23:48:21;;;;;;;32.22;21.85;;;;;;;;;;9986975;28;20058;-65
2022/11/19 23:53:15;;;;;;;29.45;21.35;;;;;;;;;;9988133;28;20050;-65
2022/11/19 23:58:09;;;;;;;35.13;22.70;;;;;;;;;;9987109;28;20137;-64
